Time;durP1;ratioP1;P1;durP2;ratioP2;P2;SDS_P1;SDS_P2;PMS_P1;PMS_P2;Temp;Humidity;BMP_temperature;BMP_pressure;BME280_temperature;BME280_humidity;BME280_pressure;Samples;Min_cycle;Max_cycle;Signal;HPM_P1;HPM_P2
2023/04/19 00:01:38;;;;;;;10.20;6.57;;;7.90;99.90;;;;;;5037373;28;20050;-57
2023/04/19 00:04:04;;;;;;;11.98;6.80;;;7.90;99.90;;;;;;5037286;28;20053;-58
2023/04/19 00:06:30;;;;;;;13.07;7.07;;;7.80;99.90;;;;;;5037331;28;20543;-57
2023/04/19 00:08:56;;;;;;;11.82;6.90;;;7.80;99.90;;;;;;5037018;28;20080;-57
2023/04/19 00:11:23;;;;;;;11.57;6.40;;;7.80;99.90;;;;;;5036958;28;20057;-57
2023/04/19 00:13:48;;;;;;;14.00;7.35;;;7.90;99.90;;;;;;5037399;28;20034;-58
2023/04/19 00:16:15;;;;;;;12.07;6.97;;;7.90;99.90;;;;;;5037422;28;20045;-57
2023/04/19 00:18:41;;;;;;;12.55;6.95;;;7.80;99.90;;;;;;5037331;28;20048;-57
2023/04/19 00:21:07;;;;;;;10.80;6.75;;;7.80;99.90;;;;;;5036952;28;20069;-57
2023/04/19 00:23:33;;;;;;;12.90;7.50;;;7.70;99.90;;;;;;5037266;28;20052;-56
2023/04/19 00:26:02;;;;;;;12.23;7.38;;;7.80;99.90;;;;;;5037383;28;20049;-57
2023/04/19 00:28:28;;;;;;;11.65;6.90;;;7.80;99.90;;;;;;5036914;28;20057;-57
2023/04/19 00:30:54;;;;;;;11.10;7.57;;;7.80;99.90;;;;;;5036994;28;20057;-57
2023/04/19 00:33:19;;;;;;;11.32;7.45;;;7.80;99.90;;;;;;5038600;28;20061;-57
2023/04/19 00:35:45;;;;;;;14.27;7.97;;;7.80;99.90;;;;;;5040831;28;20049;-59
2023/04/19 00:38:11;;;;;;;13.25;7.60;;;7.80;99.90;;;;;;5040551;28;20078;-57
2023/04/19 00:40:37;;;;;;;11.73;7.18;;;7.70;99.90;;;;;;5023614;28;20109;-57
2023/04/19 00:43:02;;;;;;;11.00;7.22;;;7.80;99.90;;;;;;5040800;28;20050;-57
2023/04/19 00:45:29;;;;;;;14.02;7.90;;;7.80;99.90;;;;;;5040646;28;20038;-57
2023/04/19 00:47:55;;;;;;;14.23;7.90;;;7.70;99.90;;;;;;5040284;28;20056;-57
2023/04/19 00:50:20;;;;;;;11.90;7.82;;;7.70;99.90;;;;;;5040757;28;20045;-57
2023/04/19 00:52:47;;;;;;;11.88;7.97;;;7.70;99.90;;;;;;5040674;28;20049;-56
2023/04/19 00:55:13;;;;;;;13.35;7.80;;;7.80;99.90;;;;;;5040977;28;20038;-57
2023/04/19 00:57:39;;;;;;;11.40;7.28;;;7.70;99.90;;;;;;5039122;28;20092;-57
2023/04/19 01:00:08;;;;;;;11.18;7.35;;;7.60;99.90;;;;;;5040520;28;20084;-57
2023/04/19 01:02:35;;;;;;;13.75;7.85;;;7.50;99.90;;;;;;5040138;28;20045;-57
2023/04/19 01:05:01;;;;;;;12.80;7.68;;;7.50;99.90;;;;;;5040398;28;20056;-58
2023/04/19 01:07:27;;;;;;;15.18;9.48;;;7.50;99.90;;;;;;5040199;28;20072;-57
2023/04/19 01:09:52;;;;;;;15.27;8.90;;;7.50;99.90;;;;;;5040160;28;20041;-57
2023/04/19 01:12:18;;;;;;;13.55;8.77;;;7.40;99.90;;;;;;5040643;28;20057;-57
2023/04/19 01:14:45;;;;;;;13.65;8.82;;;7.50;99.90;;;;;;5040166;28;20104;-57
2023/04/19 01:17:12;;;;;;;14.30;8.77;;;7.50;99.90;;;;;;5040008;28;20513;-57
2023/04/19 01:19:38;;;;;;;16.88;9.57;;;7.50;99.90;;;;;;5040026;28;20501;-57
2023/04/19 01:22:05;;;;;;;13.95;9.32;;;7.40;99.90;;;;;;5040186;28;20033;-57
2023/04/19 01:24:31;;;;;;;14.13;9.38;;;7.40;99.90;;;;;;5040045;28;20064;-57
2023/04/19 01:26:57;;;;;;;17.05;9.40;;;7.40;99.90;;;;;;5040029;28;20053;-57
2023/04/19 01:29:23;;;;;;;17.27;9.60;;;7.40;99.90;;;;;;5039959;28;20110;-57
2023/04/19 01:31:52;;;;;;;15.88;9.70;;;7.40;99.90;;;;;;5022079;28;20080;-57
2023/04/19 01:34:19;;;;;;;15.82;10.50;;;7.40;99.90;;;;;;5039959;28;20421;-57
2023/04/19 01:36:45;;;;;;;15.02;9.60;;;7.30;99.90;;;;;;5039778;28;20049;-57
2023/04/19 01:39:11;;;;;;;14.95;9.15;;;7.30;99.90;;;;;;5039339;28;20042;-57
2023/04/19 01:41:36;;;;;;;15.23;9.90;;;7.30;99.90;;;;;;5039462;28;20077;-56
2023/04/19 01:44:02;;;;;;;17.15;9.73;;;7.30;99.90;;;;;;5039147;28;20051;-58
2023/04/19 01:46:28;;;;;;;15.82;10.45;;;7.30;99.90;;;;;;5039650;28;20053;-57
2023/04/19 01:48:54;;;;;;;18.02;10.55;;;7.30;99.90;;;;;;5039282;28;20041;-58
2023/04/19 01:51:20;;;;;;;16.90;10.32;;;7.30;99.90;;;;;;5039668;28;20041;-57
2023/04/19 01:53:52;;;;;;;15.80;10.32;;;7.20;99.90;;;;;;5039456;28;20290;-57
2023/04/19 01:56:18;;;;;;;18.63;10.68;;;7.20;99.90;;;;;;5038990;28;20068;-58
2023/04/19 01:58:43;;;;;;;15.82;10.23;;;7.20;99.90;;;;;;5038440;28;20045;-58
2023/04/19 02:01:11;;;;;;;17.38;10.82;;;7.30;99.90;;;;;;5039281;28;20754;-57
2023/04/19 02:03:40;;;;;;;15.90;10.50;;;7.20;99.90;;;;;;5039578;28;20053;-58
2023/04/19 02:06:11;;;;;;;18.90;10.70;;;7.10;99.90;;;;;;5039224;28;20048;-57
2023/04/19 02:08:37;;;;;;;16.35;10.20;;;7.10;99.90;;;;;;5038955;28;20040;-58
2023/04/19 02:11:10;;;;;;;15.90;10.40;;;7.10;99.90;;;;;;5038865;28;20110;-57
2023/04/19 02:13:36;;;;;;;17.13;9.70;;;7.00;99.90;;;;;;5039310;28;20049;-58
2023/04/19 02:16:02;;;;;;;16.92;10.40;;;7.00;99.90;;;;;;5038885;28;20045;-57
2023/04/19 02:18:31;;;;;;;20.40;10.65;;;6.70;99.90;;;;;;5039089;28;20045;-57
2023/04/19 02:20:58;;;;;;;16.65;11.20;;;7.00;99.90;;;;;;5039022;28;20045;-57
2023/04/19 02:23:24;;;;;;;18.38;9.88;;;7.00;99.90;;;;;;5039085;28;20069;-57
2023/04/19 02:25:50;;;;;;;18.30;11.18;;;6.90;99.90;;;;;;5038818;28;20109;-57
2023/04/19 02:28:16;;;;;;;18.75;10.55;;;6.90;99.90;;;;;;5038694;28;20081;-57
2023/04/19 02:30:41;;;;;;;14.25;9.90;;;7.00;99.90;;;;;;5038500;28;20041;-58
2023/04/19 02:33:07;;;;;;;16.23;10.25;;;6.80;99.90;;;;;;5038736;28;20064;-57
2023/04/19 02:35:33;;;;;;;16.10;10.40;;;6.80;99.90;;;;;;5038761;28;20046;-57
2023/04/19 02:38:01;;;;;;;16.17;10.32;;;6.90;99.90;;;;;;5038695;28;20069;-57
2023/04/19 02:40:27;;;;;;;15.15;9.50;;;6.80;99.90;;;;;;5038639;28;20073;-57
2023/04/19 02:42:52;;;;;;;14.73;9.77;;;6.80;99.90;;;;;;5038661;28;20072;-57
2023/04/19 02:45:18;;;;;;;15.38;9.82;;;6.80;99.90;;;;;;5038311;28;20434;-57
2023/04/19 02:47:45;;;;;;;14.55;9.75;;;6.70;99.90;;;;;;5038436;28;20041;-57
2023/04/19 02:50:12;;;;;;;14.43;9.50;;;6.70;99.90;;;;;;5038104;28;20052;-57
2023/04/19 02:52:38;;;;;;;15.20;9.73;;;6.70;99.90;;;;;;5038406;28;20052;-57
2023/04/19 02:55:05;;;;;;;18.17;10.15;;;6.60;99.90;;;;;;5038140;28;20041;-56
2023/04/19 02:57:30;;;;;;;16.10;9.20;;;6.60;99.90;;;;;;5038157;28;20073;-56
2023/04/19 02:59:56;;;;;;;16.75;9.25;;;6.50;99.90;;;;;;5038392;28;20037;-59
2023/04/19 03:02:22;;;;;;;14.43;9.38;;;6.50;99.90;;;;;;5038258;28;20046;-57
2023/04/19 03:04:47;;;;;;;16.42;9.43;;;6.40;99.90;;;;;;5038267;28;20029;-57
2023/04/19 03:07:13;;;;;;;18.10;9.63;;;6.30;99.90;;;;;;5038017;28;20053;-57
2023/04/19 03:09:39;;;;;;;14.43;9.32;;;6.30;99.90;;;;;;5037718;28;20110;-55
2023/04/19 03:12:06;;;;;;;15.50;9.18;;;6.30;99.90;;;;;;5038292;28;20053;-57
2023/04/19 03:14:35;;;;;;;16.60;9.45;;;6.30;99.90;;;;;;5038097;28;20052;-56
2023/04/19 03:17:01;;;;;;;12.75;8.80;;;6.20;99.90;;;;;;5037971;28;20057;-56
2023/04/19 03:19:27;;;;;;;14.20;9.02;;;6.20;99.90;;;;;;5037716;28;20041;-57
2023/04/19 03:21:53;;;;;;;15.40;8.65;;;6.20;99.90;;;;;;5037794;28;20053;-57
2023/04/19 03:24:22;;;;;;;16.00;9.13;;;6.10;99.90;;;;;;5037570;28;20095;-57
2023/04/19 03:26:47;;;;;;;14.73;9.02;;;6.00;99.90;;;;;;5037818;28;20042;-57
2023/04/19 03:29:13;;;;;;;14.48;8.95;;;6.10;99.90;;;;;;5038127;28;20095;-57
2023/04/19 03:31:39;;;;;;;14.48;9.07;;;6.00;99.90;;;;;;5037894;28;20526;-58
2023/04/19 03:34:04;;;;;;;15.38;9.43;;;6.00;99.90;;;;;;5037844;28;20053;-57
2023/04/19 03:36:30;;;;;;;15.13;8.80;;;6.00;99.90;;;;;;5037638;28;20129;-57
2023/04/19 03:38:56;;;;;;;14.57;8.65;;;5.90;99.90;;;;;;5037367;28;20112;-57
2023/04/19 03:41:24;;;;;;;16.65;9.63;;;5.90;99.90;;;;;;5037294;28;20045;-57
2023/04/19 03:43:49;;;;;;;14.70;9.10;;;6.00;99.90;;;;;;5037522;28;20053;-57
2023/04/19 03:46:15;;;;;;;14.07;8.40;;;5.80;99.90;;;;;;5037831;28;20670;-57
2023/04/19 03:48:41;;;;;;;14.10;9.25;;;5.90;99.90;;;;;;5037436;28;20057;-57
2023/04/19 03:51:07;;;;;;;13.82;9.95;;;5.90;99.90;;;;;;5037484;28;20059;-57
2023/04/19 03:53:32;;;;;;;14.38;9.27;;;5.80;99.90;;;;;;5037536;28;20089;-57
2023/04/19 03:55:58;;;;;;;14.40;8.20;;;5.70;99.90;;;;;;5037407;28;20049;-57
2023/04/19 03:58:24;;;;;;;15.48;8.32;;;5.80;99.90;;;;;;5037359;28;20045;-57
2023/04/19 04:00:50;;;;;;;14.05;9.27;;;5.70;99.90;;;;;;5037289;28;20037;-58
2023/04/19 04:03:16;;;;;;;14.43;8.52;;;5.60;99.90;;;;;;5037474;28;20049;-57
2023/04/19 04:05:42;;;;;;;14.63;8.60;;;5.60;99.90;;;;;;5037267;28;20053;-56
2023/04/19 04:08:07;;;;;;;14.52;8.82;;;5.50;99.90;;;;;;5040499;28;20049;-56
2023/04/19 04:10:33;;;;;;;14.68;8.00;;;5.50;99.90;;;;;;5041597;28;20445;-58
2023/04/19 04:12:59;;;;;;;13.52;8.30;;;5.40;99.90;;;;;;5041285;28;20390;-56
2023/04/19 04:15:25;;;;;;;15.60;8.40;;;5.40;99.90;;;;;;5041007;28;20045;-56
2023/04/19 04:17:50;;;;;;;13.75;8.43;;;5.40;99.90;;;;;;5041369;28;20062;-58
2023/04/19 04:20:16;;;;;;;14.00;8.35;;;5.40;99.90;;;;;;5041325;28;20041;-56
2023/04/19 04:22:42;;;;;;;14.55;7.60;;;5.40;99.90;;;;;;5040842;28;20069;-57
2023/04/19 04:25:09;;;;;;;14.85;8.13;;;5.40;99.90;;;;;;5041440;28;20049;-56
2023/04/19 04:27:35;;;;;;;13.30;7.53;;;5.40;99.90;;;;;;5041297;28;20038;-57
2023/04/19 04:30:01;;;;;;;11.77;6.65;;;5.40;99.90;;;;;;5041010;28;20042;-57
2023/04/19 04:32:27;;;;;;;11.85;7.18;;;5.40;99.90;;;;;;5041036;28;20045;-57
2023/04/19 04:34:52;;;;;;;12.02;7.07;;;5.40;99.90;;;;;;5041052;28;20041;-57
2023/04/19 04:37:18;;;;;;;11.77;7.15;;;5.40;99.90;;;;;;5040559;28;20045;-57
2023/04/19 04:39:44;;;;;;;12.20;6.93;;;5.30;99.90;;;;;;5041100;28;20136;-57
2023/04/19 04:42:09;;;;;;;11.38;7.20;;;5.40;99.90;;;;;;5040931;28;20053;-57
2023/04/19 04:44:36;;;;;;;11.27;6.50;;;5.30;99.90;;;;;;5040801;28;20073;-56
2023/04/19 04:47:02;;;;;;;10.63;6.47;;;5.30;99.90;;;;;;5040465;28;20043;-57
2023/04/19 04:49:28;;;;;;;11.95;6.60;;;5.30;99.90;;;;;;5040419;28;20121;-57
2023/04/19 04:51:54;;;;;;;11.60;6.85;;;5.30;99.90;;;;;;5040773;28;20566;-56
2023/04/19 04:54:20;;;;;;;12.50;6.47;;;5.40;99.90;;;;;;5038264;28;20058;-57
2023/04/19 04:56:46;;;;;;;11.85;5.90;;;5.30;99.90;;;;;;5037206;28;20049;-57
2023/04/19 04:59:12;;;;;;;15.85;5.38;;;5.40;99.90;;;;;;5037515;28;20134;-57
2023/04/19 05:01:37;;;;;;;12.60;5.72;;;5.40;99.90;;;;;;5037298;28;20049;-57
2023/04/19 05:04:03;;;;;;;10.90;5.55;;;5.40;99.90;;;;;;5037309;28;20050;-55
2023/04/19 05:06:29;;;;;;;11.23;5.65;;;5.40;99.90;;;;;;5036732;28;20101;-57
2023/04/19 05:08:54;;;;;;;10.38;5.53;;;5.50;99.90;;;;;;5036803;28;20045;-56
2023/04/19 05:11:20;;;;;;;13.13;5.75;;;5.50;99.90;;;;;;5036758;28;20104;-57
2023/04/19 05:13:46;;;;;;;9.07;5.10;;;5.50;99.90;;;;;;5036673;28;20454;-57
2023/04/19 05:16:11;;;;;;;11.30;6.00;;;5.50;99.90;;;;;;5036875;28;20037;-57
2023/04/19 05:18:37;;;;;;;10.63;4.97;;;5.60;99.90;;;;;;5035711;28;20057;-55
2023/04/19 05:21:03;;;;;;;10.88;5.70;;;5.70;99.90;;;;;;5036749;28;20041;-57
2023/04/19 05:23:28;;;;;;;11.13;5.80;;;5.70;99.90;;;;;;5036771;28;20077;-57
2023/04/19 05:25:54;;;;;;;10.85;5.80;;;5.80;99.90;;;;;;5036693;28;20049;-56
2023/04/19 05:28:20;;;;;;;9.88;6.10;;;5.90;99.90;;;;;;5036423;28;20053;-57
2023/04/19 05:30:45;;;;;;;10.85;4.78;;;5.90;99.90;;;;;;5036205;28;20053;-57
2023/04/19 05:33:11;;;;;;;9.70;4.97;;;5.90;99.90;;;;;;5036591;28;20049;-57
2023/04/19 05:35:37;;;;;;;9.48;5.63;;;6.00;99.90;;;;;;5036422;28;20057;-57
2023/04/19 05:38:02;;;;;;;9.43;5.30;;;6.00;99.90;;;;;;5036604;28;20077;-57
2023/04/19 05:40:29;;;;;;;9.65;4.22;;;6.20;99.90;;;;;;5036606;28;20095;-54
2023/04/19 05:42:54;;;;;;;11.25;5.18;;;6.10;99.90;;;;;;5035974;28;20091;-57
2023/04/19 05:45:21;;;;;;;9.90;5.45;;;6.20;99.90;;;;;;5036046;28;20042;-57
2023/04/19 05:47:46;;;;;;;9.40;5.10;;;6.30;99.90;;;;;;5036167;28;20641;-57
2023/04/19 05:50:13;;;;;;;9.48;5.07;;;6.30;99.90;;;;;;5036249;28;20050;-57
2023/04/19 05:52:39;;;;;;;12.02;5.15;;;6.40;99.90;;;;;;5036362;28;20711;-57
2023/04/19 05:55:05;;;;;;;9.98;5.20;;;6.50;99.90;;;;;;5018336;28;20069;-57
2023/04/19 05:57:31;;;;;;;10.00;4.90;;;6.50;99.90;;;;;;5036216;28;20051;-57
2023/04/19 05:59:57;;;;;;;8.90;4.82;;;6.50;99.90;;;;;;5036140;28;20418;-57
2023/04/19 06:02:23;;;;;;;10.13;4.95;;;6.60;99.90;;;;;;5035752;28;20075;-57
2023/04/19 06:04:48;;;;;;;9.75;4.45;;;6.60;99.90;;;;;;5036260;28;20049;-57
2023/04/19 06:07:14;;;;;;;9.68;4.53;;;6.60;99.90;;;;;;5035317;28;20111;-57
2023/04/19 06:09:39;;;;;;;9.80;4.85;;;6.70;99.90;;;;;;5035466;28;20531;-54
2023/04/19 06:12:05;;;;;;;9.18;4.60;;;6.80;99.90;;;;;;5035956;28;20049;-57
2023/04/19 06:14:31;;;;;;;9.68;4.22;;;6.80;99.90;;;;;;5035657;28;20053;-57
2023/04/19 06:16:57;;;;;;;8.00;4.50;;;6.90;99.90;;;;;;5035725;28;20088;-57
2023/04/19 06:19:22;;;;;;;7.60;4.30;;;6.90;99.90;;;;;;5034729;28;20049;-57
2023/04/19 06:21:48;;;;;;;7.85;4.20;;;7.00;99.90;;;;;;5014775;28;20048;-56
2023/04/19 06:24:14;;;;;;;8.35;4.60;;;7.00;99.90;;;;;;5034390;28;20051;-57
2023/04/19 06:26:39;;;;;;;9.65;4.50;;;7.10;99.90;;;;;;5035157;28;20105;-58
2023/04/19 06:29:05;;;;;;;8.98;4.70;;;7.20;99.90;;;;;;5035649;28;20050;-57
2023/04/19 06:31:32;;;;;;;9.27;4.07;;;7.30;99.90;;;;;;5033626;28;20042;-57
2023/04/19 06:33:57;;;;;;;7.70;3.95;;;7.40;99.90;;;;;;5035354;28;20072;-57
2023/04/19 06:36:23;;;;;;;8.75;4.30;;;7.50;99.90;;;;;;5035480;28;20046;-57
2023/04/19 06:38:49;;;;;;;7.20;3.63;;;7.50;99.90;;;;;;5034664;28;20045;-57
2023/04/19 06:41:14;;;;;;;9.07;3.90;;;7.60;99.90;;;;;;5035144;28;20049;-57
2023/04/19 06:43:41;;;;;;;7.45;3.92;;;7.60;99.90;;;;;;5034921;28;20053;-57
2023/04/19 06:46:08;;;;;;;8.15;3.63;;;7.70;99.90;;;;;;5035206;28;20049;-57
2023/04/19 06:48:34;;;;;;;7.13;3.75;;;7.70;99.90;;;;;;5034934;28;20049;-57
2023/04/19 06:51:00;;;;;;;8.68;3.70;;;7.80;99.90;;;;;;5035053;28;20041;-56
2023/04/19 06:53:26;;;;;;;7.53;3.55;;;7.80;99.90;;;;;;5035240;28;20049;-57
2023/04/19 06:56:03;;;;;;;10.07;4.07;;;7.90;99.90;;;;;;5034654;28;20707;-57
2023/04/19 06:58:29;;;;;;;7.68;3.20;;;8.00;99.90;;;;;;5034789;28;20053;-57
2023/04/19 07:00:55;;;;;;;6.30;3.20;;;8.00;99.90;;;;;;5034702;28;20034;-57
2023/04/19 07:03:21;;;;;;;7.90;3.50;;;8.10;99.90;;;;;;5034886;28;20501;-57
2023/04/19 07:05:47;;;;;;;8.27;3.65;;;8.20;99.90;;;;;;5034621;28;20088;-57
2023/04/19 07:08:12;;;;;;;8.38;4.65;;;8.30;99.90;;;;;;5034379;28;20045;-57
2023/04/19 07:10:38;;;;;;;10.13;4.10;;;8.30;99.90;;;;;;5034576;28;20076;-57
2023/04/19 07:13:04;;;;;;;6.97;3.80;;;8.40;99.90;;;;;;5034375;28;20049;-57
2023/04/19 07:15:30;;;;;;;7.75;3.53;;;8.50;99.90;;;;;;5033705;28;20059;-57
2023/04/19 07:17:55;;;;;;;8.68;3.50;;;8.50;99.90;;;;;;5034413;28;20076;-57
2023/04/19 07:20:21;;;;;;;8.52;3.53;;;8.70;99.90;;;;;;5034674;28;20045;-57
2023/04/19 07:22:47;;;;;;;6.97;3.47;;;8.70;99.90;;;;;;5034448;28;20106;-58
2023/04/19 07:25:13;;;;;;;7.68;3.50;;;8.80;99.90;;;;;;5034748;28;20049;-57
2023/04/19 07:27:39;;;;;;;6.95;3.10;;;8.90;99.90;;;;;;5034575;28;20053;-58
2023/04/19 07:30:05;;;;;;;6.88;3.10;;;8.80;99.90;;;;;;5033253;28;20056;-57
2023/04/19 07:32:31;;;;;;;9.32;3.53;;;8.80;99.90;;;;;;5033175;28;20037;-57
2023/04/19 07:34:57;;;;;;;7.78;2.92;;;8.90;99.90;;;;;;5033846;28;20327;-58
2023/04/19 07:37:23;;;;;;;7.68;3.17;;;9.00;99.90;;;;;;5036207;28;20048;-57
2023/04/19 07:39:48;;;;;;;6.55;3.03;;;9.00;99.90;;;;;;5037111;28;20078;-58
2023/04/19 07:42:14;;;;;;;6.15;2.63;;;9.10;99.90;;;;;;5037376;28;20052;-57
2023/04/19 07:44:40;;;;;;;6.30;2.88;;;9.20;99.90;;;;;;5036711;28;20103;-57
2023/04/19 07:47:05;;;;;;;5.90;2.70;;;9.20;99.90;;;;;;5037163;28;20069;-58
2023/04/19 07:49:33;;;;;;;7.43;2.95;;;9.40;99.90;;;;;;5036971;28;20056;-57
2023/04/19 07:52:01;;;;;;;6.88;2.70;;;9.40;99.90;;;;;;5037416;28;20053;-58
2023/04/19 07:54:27;;;;;;;8.23;2.88;;;9.40;99.90;;;;;;5037097;28;20576;-57
2023/04/19 07:56:53;;;;;;;21.73;3.83;;;9.50;99.90;;;;;;5037332;28;20059;-56
2023/04/19 07:59:19;;;;;;;8.93;3.28;;;9.60;99.90;;;;;;5037203;28;20549;-57
2023/04/19 08:01:45;;;;;;;6.70;2.85;;;9.60;99.90;;;;;;5037209;28;20041;-57
2023/04/19 08:04:10;;;;;;;6.28;2.83;;;9.70;99.90;;;;;;5037159;28;20057;-57
2023/04/19 08:06:38;;;;;;;6.47;2.90;;;9.70;99.90;;;;;;5039369;28;20045;-58
2023/04/19 08:09:04;;;;;;;6.75;2.40;;;9.70;99.90;;;;;;5037237;28;20057;-57
2023/04/19 08:11:30;;;;;;;5.97;2.70;;;9.90;99.90;;;;;;5036762;28;20060;-57
2023/04/19 08:13:56;;;;;;;6.40;2.33;;;9.90;99.90;;;;;;5037217;28;20783;-57
2023/04/19 08:16:22;;;;;;;6.90;3.05;;;9.90;99.90;;;;;;5037447;28;20045;-58
2023/04/19 08:18:50;;;;;;;5.35;1.98;;;9.90;99.90;;;;;;5037074;28;20456;-57
2023/04/19 08:21:16;;;;;;;5.40;2.10;;;10.00;99.90;;;;;;5036906;28;20041;-56
2023/04/19 08:23:42;;;;;;;5.60;2.20;;;10.10;99.90;;;;;;5036882;28;20037;-58
2023/04/19 08:26:08;;;;;;;6.13;2.10;;;10.10;99.90;;;;;;5019076;28;20042;-57
2023/04/19 08:28:34;;;;;;;6.25;2.25;;;10.10;99.90;;;;;;5018943;28;20473;-57
2023/04/19 08:30:59;;;;;;;6.45;2.30;;;10.10;99.90;;;;;;5036938;28;20082;-57
2023/04/19 08:33:27;;;;;;;5.50;2.40;;;10.20;99.90;;;;;;5036888;28;20166;-57
2023/04/19 08:35:52;;;;;;;6.78;2.58;;;10.30;99.90;;;;;;5036837;28;20046;-57
2023/04/19 08:38:18;;;;;;;5.22;2.28;;;10.50;99.90;;;;;;5036785;28;20045;-56
2023/04/19 08:40:52;;;;;;;4.65;1.90;;;10.50;99.90;;;;;;5036677;28;20600;-57
2023/04/19 08:43:18;;;;;;;5.78;2.17;;;10.60;99.90;;;;;;5036333;28;20045;-56
2023/04/19 08:45:48;;;;;;;5.65;2.58;;;10.50;99.90;;;;;;5036799;28;20052;-57
2023/04/19 08:48:15;;;;;;;5.85;2.33;;;10.60;99.90;;;;;;5036714;28;20065;-57
2023/04/19 08:50:41;;;;;;;4.60;2.40;;;10.60;99.90;;;;;;5036859;28;20409;-57
2023/04/19 08:53:09;;;;;;;5.45;2.10;;;10.70;99.90;;;;;;5036916;28;20055;-57
2023/04/19 08:55:37;;;;;;;4.93;2.13;;;10.70;99.90;;;;;;5040356;28;20103;-57
2023/04/19 08:58:03;;;;;;;5.53;2.30;;;10.80;99.90;;;;;;5040266;28;20092;-56
2023/04/19 09:00:30;;;;;;;5.30;2.30;;;10.90;99.90;;;;;;5040304;28;20417;-56
2023/04/19 09:02:57;;;;;;;5.32;2.47;;;11.00;99.90;;;;;;5040173;28;20045;-57
2023/04/19 09:05:23;;;;;;;5.20;1.90;;;11.00;99.90;;;;;;5021868;28;20056;-57
2023/04/19 09:07:49;;;;;;;6.00;2.15;;;11.10;99.90;;;;;;5039651;28;20054;-57
2023/04/19 09:10:17;;;;;;;7.22;2.30;;;11.20;99.90;;;;;;5040015;28;20063;-57
2023/04/19 09:13:02;;;;;;;5.40;2.17;;;11.30;99.90;;;;;;5040005;28;20559;-57
2023/04/19 09:15:39;;;;;;;6.30;2.30;;;11.30;99.90;;;;;;5039784;28;20606;-58
2023/04/19 09:18:08;;;;;;;4.78;2.10;;;11.50;99.90;;;;;;5040335;28;20277;-57
2023/04/19 09:20:42;;;;;;;5.38;2.28;;;11.50;99.90;;;;;;5040462;28;20041;-57
2023/04/19 09:23:11;;;;;;;5.10;2.20;;;11.70;99.90;;;;;;5022639;28;20073;-57
2023/04/19 09:25:38;;;;;;;5.38;2.25;;;11.60;99.90;;;;;;5039474;28;20041;-57
2023/04/19 09:28:13;;;;;;;4.80;1.95;;;11.60;99.90;;;;;;5039675;28;20052;-57
2023/04/19 09:30:39;;;;;;;5.43;2.00;;;11.70;99.90;;;;;;5038473;28;20061;-57
2023/04/19 09:33:06;;;;;;;5.20;2.28;;;11.70;99.90;;;;;;5038901;28;20048;-57
2023/04/19 09:35:47;;;;;;;4.38;1.88;;;11.60;99.10;;;;;;5038784;28;20096;-57
2023/04/19 09:38:14;;;;;;;4.70;1.63;;;11.80;99.90;;;;;;5037317;28;20041;-56
2023/04/19 09:40:40;;;;;;;5.63;2.33;;;11.80;99.90;;;;;;5039242;28;20532;-57
2023/04/19 09:43:06;;;;;;;13.43;2.20;;;11.80;99.90;;;;;;5039048;28;20053;-57
2023/04/19 09:45:40;;;;;;;5.35;1.65;;;11.80;99.10;;;;;;5039077;28;20045;-57
2023/04/19 09:48:07;;;;;;;5.88;2.08;;;11.80;99.30;;;;;;5039484;28;20041;-57
2023/04/19 09:50:33;;;;;;;4.93;1.90;;;12.00;99.30;;;;;;5039855;28;20093;-57
2023/04/19 09:53:00;;;;;;;6.90;1.90;;;12.10;99.60;;;;;;5039585;28;20073;-58
2023/04/19 09:55:26;;;;;;;5.28;2.05;;;12.10;99.80;;;;;;5038781;28;20106;-57
2023/04/19 09:57:52;;;;;;;5.35;2.17;;;12.10;99.00;;;;;;5038838;28;20053;-57
2023/04/19 10:00:20;;;;;;;5.70;1.85;;;12.10;99.50;;;;;;5039506;28;20049;-55
2023/04/19 10:02:54;;;;;;;3.88;1.40;;;12.20;98.70;;;;;;5021482;28;20049;-57
2023/04/19 10:05:24;;;;;;;4.00;1.70;;;12.30;98.70;;;;;;5039033;28;20053;-57
2023/04/19 10:07:51;;;;;;;4.68;1.40;;;12.30;97.40;;;;;;5038883;28;20114;-57
2023/04/19 10:10:17;;;;;;;4.18;1.52;;;12.30;97.90;;;;;;5021087;28;20098;-57
2023/04/19 10:12:48;;;;;;;4.03;1.70;;;12.30;97.40;;;;;;5038559;28;20598;-57
2023/04/19 10:15:15;;;;;;;4.53;1.60;;;12.20;97.00;;;;;;5038859;28;20037;-57
2023/04/19 10:17:41;;;;;;;3.88;1.50;;;12.30;98.30;;;;;;5039081;28;20041;-57
2023/04/19 10:20:12;;;;;;;3.90;1.40;;;12.50;97.20;;;;;;5039097;28;20403;-57
2023/04/19 10:22:38;;;;;;;3.42;1.17;;;12.50;97.30;;;;;;5038345;28;20045;-57
2023/04/19 10:25:12;;;;;;;4.22;1.50;;;12.60;96.90;;;;;;5038680;28;20037;-57
2023/04/19 10:27:45;;;;;;;4.53;1.40;;;12.50;96.60;;;;;;5038627;28;20045;-57
2023/04/19 10:30:31;;;;;;;5.00;1.63;;;12.50;96.10;;;;;;5038427;28;20497;-57
2023/04/19 10:32:59;;;;;;;4.47;1.30;;;12.60;95.90;;;;;;5038090;28;20049;-55
2023/04/19 10:35:28;;;;;;;3.60;1.40;;;12.50;96.90;;;;;;5038119;28;20068;-57
2023/04/19 10:38:12;;;;;;;4.22;1.45;;;12.60;96.00;;;;;;5038064;28;20624;-57
2023/04/19 10:40:56;;;;;;;4.30;1.20;;;12.60;95.10;;;;;;5036449;28;20049;-57
2023/04/19 10:43:24;;;;;;;6.30;1.60;;;12.60;95.00;;;;;;5037474;28;20068;-57
2023/04/19 10:45:50;;;;;;;3.97;1.48;;;12.60;95.30;;;;;;5037539;28;20076;-56
2023/04/19 10:48:25;;;;;;;4.05;1.27;;;12.70;96.00;;;;;;5037902;28;20025;-57
2023/04/19 10:51:21;;;;;;;5.22;1.50;;;12.90;96.90;;;;;;5037807;28;20531;-57
2023/04/19 10:53:58;;;;;;;3.45;1.30;;;12.80;95.60;;;;;;5035807;28;20081;-57
2023/04/19 10:56:33;;;;;;;4.53;1.50;;;12.90;96.80;;;;;;5037425;28;20053;-57
2023/04/19 10:59:01;;;;;;;5.35;1.60;;;12.90;95.90;;;;;;5037895;28;20383;-57
2023/04/19 11:01:44;;;;;;;4.90;1.50;;;12.90;96.60;;;;;;5037488;28;20084;-57
2023/04/19 11:04:16;;;;;;;10.38;1.90;;;13.00;96.90;;;;;;5034952;28;20042;-57
2023/04/19 11:06:53;;;;;;;3.38;1.30;;;12.90;95.50;;;;;;5037220;28;20041;-57
2023/04/19 11:09:26;;;;;;;4.32;1.70;;;12.90;95.90;;;;;;5036978;28;20048;-55
2023/04/19 11:11:56;;;;;;;6.32;2.00;;;12.90;95.40;;;;;;5037545;28;20514;-57
2023/04/19 11:14:22;;;;;;;4.28;1.90;;;13.00;96.40;;;;;;5019591;28;20072;-57
2023/04/19 11:16:48;;;;;;;6.20;1.88;;;13.10;97.80;;;;;;5036942;28;20045;-57
2023/04/19 11:19:18;;;;;;;5.00;1.95;;;13.00;97.20;;;;;;5037114;28;20065;-57
2023/04/19 11:21:45;;;;;;;5.47;1.80;;;13.10;97.90;;;;;;5036970;28;20042;-57
2023/04/19 11:24:12;;;;;;;5.30;1.73;;;13.10;98.50;;;;;;5019044;28;20048;-56
2023/04/19 11:26:37;;;;;;;6.53;2.10;;;13.00;97.50;;;;;;5037063;28;20025;-56
2023/04/19 11:29:05;;;;;;;5.53;1.80;;;13.00;97.80;;;;;;5036985;28;20076;-57
2023/04/19 11:31:33;;;;;;;6.13;2.10;;;12.70;97.70;;;;;;5036845;28;20041;-56
2023/04/19 11:33:59;;;;;;;5.30;2.08;;;12.80;98.20;;;;;;5036900;28;20045;-57
2023/04/19 11:36:25;;;;;;;7.18;2.65;;;12.80;98.40;;;;;;5037474;28;20033;-57
2023/04/19 11:38:54;;;;;;;6.00;2.50;;;12.70;99.20;;;;;;5037261;28;20041;-57
2023/04/19 11:41:19;;;;;;;7.22;2.55;;;12.70;98.80;;;;;;5037443;28;20068;-57
2023/04/19 11:43:45;;;;;;;5.75;2.28;;;12.90;99.00;;;;;;5037170;28;20069;-56
2023/04/19 11:46:12;;;;;;;7.25;2.65;;;12.90;99.10;;;;;;5037016;28;20046;-57
2023/04/19 11:48:48;;;;;;;6.82;2.45;;;12.90;99.50;;;;;;5019165;28;20088;-58
2023/04/19 11:51:14;;;;;;;8.48;2.47;;;12.90;99.20;;;;;;5017256;28;20559;-57
2023/04/19 11:53:40;;;;;;;7.05;2.58;;;12.90;98.30;;;;;;5017189;28;20058;-57
2023/04/19 11:56:07;;;;;;;6.05;2.60;;;12.90;99.60;;;;;;5017228;28;20096;-57
2023/04/19 11:58:38;;;;;;;6.50;3.10;;;12.90;99.40;;;;;;5017355;28;20034;-57
2023/04/19 12:01:05;;;;;;;6.38;2.85;;;12.90;99.90;;;;;;5017220;28;20058;-57
2023/04/19 12:03:32;;;;;;;7.70;3.03;;;12.80;99.90;;;;;;5017427;28;20128;-57
2023/04/19 12:06:02;;;;;;;8.27;3.30;;;12.90;99.90;;;;;;5017675;28;20657;-57
2023/04/19 12:08:41;;;;;;;7.00;2.88;;;12.90;99.50;;;;;;5029842;28;20100;-56
2023/04/19 12:11:07;;;;;;;7.68;3.42;;;12.90;99.60;;;;;;5036578;28;20429;-57
2023/04/19 12:13:33;;;;;;;8.23;3.33;;;13.00;99.90;;;;;;5037201;28;20050;-57
2023/04/19 12:16:00;;;;;;;6.32;3.20;;;12.80;99.50;;;;;;5037384;28;20042;-57
2023/04/19 12:18:26;;;;;;;7.15;3.40;;;12.80;99.10;;;;;;5018879;28;20092;-57
2023/04/19 12:20:52;;;;;;;7.05;3.42;;;12.80;99.90;;;;;;5036959;28;20045;-58
2023/04/19 12:23:19;;;;;;;6.35;3.20;;;12.80;99.90;;;;;;5036864;28;20052;-57
2023/04/19 12:25:46;;;;;;;8.23;3.70;;;12.90;99.90;;;;;;5036652;28;20061;-57
2023/04/19 12:28:13;;;;;;;8.85;4.13;;;13.00;99.90;;;;;;5036853;28;20037;-57
2023/04/19 12:30:39;;;;;;;10.18;3.58;;;13.00;99.90;;;;;;5040927;28;20204;-57
2023/04/19 12:33:08;;;;;;;8.38;4.18;;;12.90;99.90;;;;;;5041302;28;20073;-57
2023/04/19 12:35:34;;;;;;;9.48;4.15;;;12.80;99.90;;;;;;5040783;28;20524;-57
2023/04/19 12:38:01;;;;;;;8.38;3.75;;;12.90;99.90;;;;;;5040486;28;20096;-57
2023/04/19 12:40:27;;;;;;;9.63;3.80;;;12.80;99.90;;;;;;5040700;28;20147;-57
2023/04/19 12:42:53;;;;;;;10.98;4.43;;;12.90;99.90;;;;;;5040842;28;20041;-57
2023/04/19 12:45:19;;;;;;;9.75;3.90;;;12.80;99.90;;;;;;5039768;28;20513;-57
2023/04/19 12:47:47;;;;;;;9.15;3.72;;;13.00;99.90;;;;;;5040127;28;20052;-57